Amelia, VA

5:28 AM EST on December 25, 2014 (GMT -0500)
Woodlake - Orchard Grove | Change Station
CLOSE
Current Station
Personal Weather Station
Location: Midlothian, VA
Elevation: 230 ft
Nearby Weather Stations

Elev 230 ft 37.42 °N, 77.69 °W | Updated 15 seconds ago

Overcast
Overcast
56.3 °F
Feels Like 56.3 °F
N
5.4
Wind Variable Wind from SW
Gusts 5.4 mph

Today
High -- | Low -- °F
--% Chance of Precip.
Yesterday
High -- | Low -- °F
Precip. -- in
7:24 AM 4:59 PM
Waxing Crescent, 15% visible
Pressure 29.70 in
Visibility 10.0 miles
Clouds Scattered Clouds 2400 ft
Mostly Cloudy 3100 ft
Mostly Cloudy 6000 ft
Dew Point 52 °F
Humidity 86%
Rainfall 0.00 in
Snow Depth Not available.
UV 0 out of 12
Pollen .10 out of 12
Air Quality Not available.
Flu Activity Not available.
METAR KFCI 250955Z AUTO 27004KT 10SM SCT024 BKN031 BKN060 14/09 A2970 RMK AO1

More Conditions Fewer Conditions

Pressure 29.70 in
Visibility 10.0 miles
Clouds Scattered Clouds 2400 ft
Mostly Cloudy 3100 ft
Mostly Cloudy 6000 ft
Dew Point 52 °F
Humidity 86%
Rainfall 0.00 in
Snow Depth Not available.
UV 0 out of 12
Pollen .10 out of 12
Air Quality Not available.
Flu Activity Not available.
METAR KFCI 250955Z AUTO 27004KT 10SM SCT024 BKN031 BKN060 14/09 A2970 RMK AO1

More Conditions Fewer Conditions

10-Day Weather Forecast

Almanac

Astronomy

Dec. 25, 2014 Rise Set
Actual Time
Civil Twilight
Nautical Twilight
Astronomical Twilight
Moon
Length of Visible Light
Length of Day
Tomorrow will be .
, % of the Moon is Illuminated

Today's Extremes

State Highs State Lows

Community

WunderPhotos

Upload Photos

1,780,254 photos uploaded!

WunderBlogs® & News

Nearby

Air Quality

  Air Quality AQ Index Pollutant
Not available.

Snow Depth

Station Depth Elevation

Earthquake Activity

City Distance Mag. Time & Date
Minimum magnitude displayed is 2.5.

Coastal Water Temperatures

Place Temperature

Nearby Weather Stations